Time;durP1;ratioP1;P1;durP2;ratioP2;P2;SDS_P1;SDS_P2;PMS_P1;PMS_P2;Temp;Humidity;BMP_temperature;BMP_pressure;BME280_temperature;BME280_humidity;BME280_pressure;Samples;Min_cycle;Max_cycle;Signal;HPM_P1;HPM_P2
2023/08/23 00:02:22;;;;;;;9.23;7.93;;;;;;;;;;10250902;28;20049;-66
2023/08/23 00:07:18;;;;;;;12.90;9.13;;;;;;;;;;10253984;28;20099;-67
2023/08/23 00:12:15;;;;;;;10.65;8.98;;;;;;;;;;10260720;28;20084;-65
2023/08/23 00:17:11;;;;;;;12.18;10.90;;;;;;;;;;10258883;28;20052;-66
2023/08/23 00:22:07;;;;;;;16.50;10.73;;;;;;;;;;10256905;28;20499;-66
2023/08/23 00:27:04;;;;;;;14.13;10.73;;;;;;;;;;10258733;28;20071;-66
2023/08/23 00:32:00;;;;;;;14.00;10.63;;;;;;;;;;10259558;28;20052;-66
2023/08/23 00:36:56;;;;;;;15.52;11.45;;;;;;;;;;10266371;28;20053;-66
2023/08/23 00:41:53;;;;;;;19.50;13.02;;;;;;;;;;10255744;28;20327;-66
2023/08/23 00:46:49;;;;;;;15.98;12.23;;;;;;;;;;10268558;28;20051;-66
2023/08/23 00:51:46;;;;;;;15.07;12.07;;;;;;;;;;10259044;28;20052;-66
2023/08/23 00:56:43;;;;;;;18.67;12.80;;;;;;;;;;10272157;28;20427;-68
2023/08/23 01:01:39;;;;;;;17.92;13.38;;;;;;;;;;10251866;28;20091;-66
2023/08/23 01:06:45;;;;;;;16.63;14.02;;;;;;;;;;10262061;28;20071;-67
2023/08/23 01:11:48;;;;;;;19.40;14.65;;;;;;;;;;10256542;28;20084;-67
2023/08/23 01:16:46;;;;;;;20.73;14.88;;;;;;;;;;10258327;28;20068;-67
2023/08/23 01:21:42;;;;;;;20.48;14.27;;;;;;;;;;10262996;28;20468;-67
2023/08/23 01:26:39;;;;;;;23.27;15.00;;;;;;;;;;10258905;28;20072;-66
2023/08/23 01:31:38;;;;;;;20.35;15.15;;;;;;;;;;10260990;28;20048;-66
2023/08/23 01:36:36;;;;;;;21.55;14.88;;;;;;;;;;10265888;28;20132;-65
2023/08/23 01:41:32;;;;;;;21.85;14.90;;;;;;;;;;10257425;28;20045;-65
2023/08/23 01:46:29;;;;;;;19.67;14.82;;;;;;;;;;10271088;28;20059;-66
2023/08/23 01:51:25;;;;;;;21.70;16.08;;;;;;;;;;10270102;28;20049;-66
2023/08/23 01:56:21;;;;;;;22.30;16.40;;;;;;;;;;10260560;28;20507;-66
2023/08/23 02:01:17;;;;;;;18.77;15.48;;;;;;;;;;10257922;28;20061;-67
2023/08/23 02:06:14;;;;;;;24.27;16.48;;;;;;;;;;10259143;28;20108;-67
2023/08/23 02:11:10;;;;;;;25.42;16.80;;;;;;;;;;10258571;28;20423;-67
2023/08/23 02:16:06;;;;;;;20.75;15.93;;;;;;;;;;10269994;28;20748;-67
2023/08/23 02:21:03;;;;;;;20.65;15.52;;;;;;;;;;10262344;28;20581;-65
2023/08/23 02:25:59;;;;;;;17.67;15.75;;;;;;;;;;10265774;28;20045;-65
2023/08/23 02:31:00;;;;;;;18.85;16.48;;;;;;;;;;10257134;28;20450;-66
2023/08/23 02:35:57;;;;;;;19.70;15.95;;;;;;;;;;10259679;28;20045;-67
2023/08/23 02:40:56;;;;;;;16.92;15.05;;;;;;;;;;10268216;28;20510;-66
2023/08/23 02:45:52;;;;;;;21.05;16.17;;;;;;;;;;10260136;28;20049;-66
2023/08/23 02:50:48;;;;;;;20.75;16.70;;;;;;;;;;10249697;28;20087;-67
2023/08/23 02:55:45;;;;;;;19.05;16.15;;;;;;;;;;10259482;28;20054;-66
2023/08/23 03:00:41;;;;;;;19.17;16.40;;;;;;;;;;10253886;28;20072;-67
2023/08/23 03:05:37;;;;;;;21.70;16.52;;;;;;;;;;10263623;28;20045;-67
2023/08/23 03:10:34;;;;;;;24.63;18.50;;;;;;;;;;10265806;28;20099;-66
2023/08/23 03:15:30;;;;;;;21.88;17.48;;;;;;;;;;10260310;28;20507;-65
2023/08/23 03:20:26;;;;;;;26.40;18.60;;;;;;;;;;10261835;28;20502;-65
2023/08/23 03:25:23;;;;;;;23.25;18.38;;;;;;;;;;10248036;28;20052;-67
2023/08/23 03:30:20;;;;;;;19.40;17.20;;;;;;;;;;10254327;28;20522;-66
2023/08/23 03:35:16;;;;;;;24.92;19.75;;;;;;;;;;10242559;28;20053;-70
2023/08/23 03:40:13;;;;;;;24.25;19.52;;;;;;;;;;10250131;28;20041;-69
2023/08/23 03:45:09;;;;;;;24.55;19.02;;;;;;;;;;10255008;28;20759;-69
2023/08/23 03:50:06;;;;;;;25.90;18.60;;;;;;;;;;10249739;28;20057;-69
2023/08/23 03:55:02;;;;;;;24.52;19.60;;;;;;;;;;10240762;28;20044;-69
2023/08/23 03:59:59;;;;;;;20.13;18.20;;;;;;;;;;10246940;28;20552;-69
2023/08/23 04:04:55;;;;;;;22.40;17.20;;;;;;;;;;10246244;28;21165;-69
2023/08/23 04:09:51;;;;;;;19.27;15.45;;;;;;;;;;10246949;28;21316;-69
2023/08/23 04:14:48;;;;;;;24.60;16.83;;;;;;;;;;10246435;28;20733;-69
2023/08/23 04:19:44;;;;;;;17.73;15.45;;;;;;;;;;10246727;28;20060;-69
2023/08/23 04:24:41;;;;;;;20.35;15.23;;;;;;;;;;10246140;28;20498;-69
2023/08/23 04:29:37;;;;;;;17.58;14.15;;;;;;;;;;10237549;28;20743;-69
2023/08/23 04:34:33;;;;;;;18.40;16.00;;;;;;;;;;10253401;28;20143;-69
2023/08/23 04:39:30;;;;;;;21.30;17.45;;;;;;;;;;10263863;22;20060;-68
2023/08/23 04:44:27;;;;;;;18.58;16.48;;;;;;;;;;10252681;28;20320;-68
2023/08/23 04:49:23;;;;;;;19.60;15.00;;;;;;;;;;10244734;28;20052;-68
2023/08/23 04:54:20;;;;;;;19.05;14.98;;;;;;;;;;10247204;28;20124;-69
2023/08/23 04:59:16;;;;;;;15.75;14.27;;;;;;;;;;10300275;22;20061;-68
2023/08/23 05:04:12;;;;;;;15.48;14.18;;;;;;;;;;10254179;28;20683;-70
2023/08/23 05:09:09;;;;;;;16.30;14.60;;;;;;;;;;10246634;28;20041;-69
2023/08/23 05:14:05;;;;;;;15.38;13.82;;;;;;;;;;10245684;28;20041;-69
2023/08/23 05:19:01;;;;;;;18.67;14.40;;;;;;;;;;10253410;28;20511;-69
2023/08/23 05:23:58;;;;;;;15.73;14.32;;;;;;;;;;10244355;28;20045;-68
2023/08/23 05:28:54;;;;;;;15.85;13.57;;;;;;;;;;10255808;28;20048;-69
2023/08/23 05:33:50;;;;;;;15.25;13.85;;;;;;;;;;10251374;28;20049;-69
2023/08/23 05:38:49;;;;;;;14.85;13.45;;;;;;;;;;10256742;28;20059;-69
2023/08/23 05:43:45;;;;;;;16.38;13.90;;;;;;;;;;10264294;28;20106;-69
2023/08/23 05:48:42;;;;;;;15.38;13.88;;;;;;;;;;10244004;28;20073;-69
2023/08/23 05:53:41;;;;;;;15.80;13.57;;;;;;;;;;10236819;28;20054;-71
2023/08/23 05:58:37;;;;;;;17.25;13.95;;;;;;;;;;10244793;28;20077;-71
2023/08/23 06:03:33;;;;;;;15.48;13.82;;;;;;;;;;10253493;28;20515;-70
2023/08/23 06:08:30;;;;;;;14.57;13.15;;;;;;;;;;10253241;28;20049;-70
2023/08/23 06:13:27;;;;;;;14.75;13.07;;;;;;;;;;10247289;28;20125;-70
2023/08/23 06:18:23;;;;;;;13.18;11.90;;;;;;;;;;10287340;23;1032487;-70
2023/08/23 06:23:20;;;;;;;14.10;12.63;;;;;;;;;;10266911;28;20053;-70
2023/08/23 06:28:16;;;;;;;11.75;10.77;;;;;;;;;;10253141;28;20056;-70
2023/08/23 06:33:12;;;;;;;12.13;11.10;;;;;;;;;;10256268;28;20045;-70
2023/08/23 06:38:09;;;;;;;12.00;10.70;;;;;;;;;;10248156;28;20048;-70
2023/08/23 06:43:05;;;;;;;10.88;9.68;;;;;;;;;;10252284;28;20056;-70
2023/08/23 06:48:01;;;;;;;11.48;10.38;;;;;;;;;;10247980;28;20057;-70
2023/08/23 06:52:58;;;;;;;11.98;10.50;;;;;;;;;;10259310;28;20136;-70
2023/08/23 06:57:54;;;;;;;10.73;9.73;;;;;;;;;;10248234;28;20518;-70
2023/08/23 07:02:52;;;;;;;9.90;8.90;;;;;;;;;;10256669;28;20575;-70
2023/08/23 07:07:48;;;;;;;9.52;8.63;;;;;;;;;;10288927;22;20079;-70
2023/08/23 07:12:45;;;;;;;10.65;9.00;;;;;;;;;;10266938;28;20056;-70
2023/08/23 07:17:41;;;;;;;11.13;9.68;;;;;;;;;;10255623;28;20065;-70
2023/08/23 07:22:38;;;;;;;11.80;9.27;;;;;;;;;;10217113;28;20080;-70
2023/08/23 07:27:34;;;;;;;9.68;8.70;;;;;;;;;;10238495;22;20069;-70
2023/08/23 07:32:32;;;;;;;10.63;8.70;;;;;;;;;;10253121;28;20063;-70
2023/08/23 07:37:28;;;;;;;9.52;8.57;;;;;;;;;;10246502;28;20503;-70
2023/08/23 07:42:25;;;;;;;9.45;7.88;;;;;;;;;;10245932;28;20051;-70
2023/08/23 07:47:21;;;;;;;10.18;6.95;;;;;;;;;;10243880;28;20427;-71
2023/08/23 07:52:18;;;;;;;7.95;6.60;;;;;;;;;;10238518;28;20514;-70
2023/08/23 07:57:14;;;;;;;9.20;7.55;;;;;;;;;;10249722;28;20049;-70
2023/08/23 08:02:11;;;;;;;8.60;7.00;;;;;;;;;;10235159;28;20056;-70
2023/08/23 08:07:07;;;;;;;9.63;6.78;;;;;;;;;;10259589;28;20049;-70
2023/08/23 08:12:04;;;;;;;7.45;6.85;;;;;;;;;;10240225;28;20566;-70
2023/08/23 08:17:00;;;;;;;6.80;6.30;;;;;;;;;;10258925;28;20107;-70
2023/08/23 08:21:56;;;;;;;9.15;6.93;;;;;;;;;;10253791;28;20134;-70
2023/08/23 08:26:53;;;;;;;7.18;6.57;;;;;;;;;;10242819;28;20049;-70
2023/08/23 08:31:50;;;;;;;6.82;6.13;;;;;;;;;;10249592;28;20057;-70
2023/08/23 08:36:47;;;;;;;7.90;7.20;;;;;;;;;;10241128;28;20052;-70
2023/08/23 08:41:44;;;;;;;8.43;6.60;;;;;;;;;;10254153;28;20044;-70
2023/08/23 08:46:40;;;;;;;7.40;6.10;;;;;;;;;;10241801;28;20044;-70
2023/08/23 08:51:39;;;;;;;8.05;6.30;;;;;;;;;;10318667;23;20064;-70
2023/08/23 08:56:35;;;;;;;7.18;6.25;;;;;;;;;;10263998;28;20083;-69
2023/08/23 09:01:32;;;;;;;6.78;6.18;;;;;;;;;;10256493;28;20053;-69
2023/08/23 09:06:29;;;;;;;6.65;6.15;;;;;;;;;;10239888;28;20418;-69
2023/08/23 09:11:25;;;;;;;6.97;6.28;;;;;;;;;;10257294;28;20042;-69
2023/08/23 09:16:25;;;;;;;7.13;6.43;;;;;;;;;;10257042;28;20053;-69
2023/08/23 09:21:24;;;;;;;7.20;6.40;;;;;;;;;;10261405;28;20140;-69
2023/08/23 09:26:20;;;;;;;8.45;6.85;;;;;;;;;;10256004;28;20049;-69
2023/08/23 09:31:17;;;;;;;7.00;6.30;;;;;;;;;;10263063;28;20518;-69
2023/08/23 09:36:23;;;;;;;6.65;6.03;;;;;;;;;;10252237;28;20060;-69
2023/08/23 09:41:20;;;;;;;7.50;6.80;;;;;;;;;;10253094;28;20060;-69
2023/08/23 09:46:17;;;;;;;7.22;6.53;;;;;;;;;;10246811;28;20533;-69
2023/08/23 09:51:14;;;;;;;13.65;7.55;;;;;;;;;;10249951;28;20057;-69
2023/08/23 09:56:11;;;;;;;49.72;8.68;;;;;;;;;;10267375;28;20423;-69
2023/08/23 10:01:08;;;;;;;20.45;9.27;;;;;;;;;;10262245;28;20429;-69
2023/08/23 10:06:04;;;;;;;7.57;6.10;;;;;;;;;;10256558;28;20072;-69
2023/08/23 10:11:01;;;;;;;7.15;6.50;;;;;;;;;;10241480;28;20056;-69
2023/08/23 10:15:58;;;;;;;6.97;6.38;;;;;;;;;;10252853;28;20136;-69
2023/08/23 10:21:19;;;;;;;8.65;7.00;;;;;;;;;;10356135;23;20542;-69
2023/08/23 10:26:43;;;;;;;8.20;7.40;;;;;;;;;;10255554;28;20053;-69
2023/08/23 10:31:50;;;;;;;7.65;7.00;;;;;;;;;;10250956;28;20067;-69
2023/08/23 10:36:47;;;;;;;7.07;6.40;;;;;;;;;;10248490;28;20192;-69
2023/08/23 10:41:43;;;;;;;6.72;6.22;;;;;;;;;;10257006;28;20552;-69
2023/08/23 10:46:43;;;;;;;6.45;5.95;;;;;;;;;;10259595;28;20045;-69
2023/08/23 10:51:41;;;;;;;6.82;5.93;;;;;;;;;;10281197;22;20439;-69
2023/08/23 10:56:38;;;;;;;6.38;5.72;;;;;;;;;;10265142;28;20168;-69
2023/08/23 11:01:40;;;;;;;6.15;5.65;;;;;;;;;;10250078;28;20450;-69
2023/08/23 11:06:36;;;;;;;6.53;6.03;;;;;;;;;;10264957;28;20045;-69
2023/08/23 11:11:33;;;;;;;6.25;5.65;;;;;;;;;;10254384;28;20439;-68
2023/08/23 11:16:29;;;;;;;6.28;5.85;;;;;;;;;;10251976;28;20059;-69
2023/08/23 11:21:25;;;;;;;6.68;6.18;;;;;;;;;;10296632;23;20049;-69
2023/08/23 11:26:22;;;;;;;6.13;5.60;;;;;;;;;;10264588;28;20102;-69
2023/08/23 11:31:20;;;;;;;6.10;5.50;;;;;;;;;;10242617;28;20507;-69
2023/08/23 11:36:18;;;;;;;5.93;5.43;;;;;;;;;;10237959;28;20049;-69
2023/08/23 11:41:14;;;;;;;6.38;5.78;;;;;;;;;;10259964;28;20096;-69
2023/08/23 11:46:11;;;;;;;6.57;5.60;;;;;;;;;;10244385;28;20066;-69
2023/08/23 11:51:08;;;;;;;6.03;5.50;;;;;;;;;;10363315;23;20075;-69
2023/08/23 11:56:08;;;;;;;6.90;6.30;;;;;;;;;;10261376;28;20134;-69
2023/08/23 12:01:04;;;;;;;6.50;6.00;;;;;;;;;;10248205;28;20099;-70
2023/08/23 12:06:00;;;;;;;6.78;6.18;;;;;;;;;;10240940;28;20067;-70
2023/08/23 12:10:56;;;;;;;6.43;5.93;;;;;;;;;;10261542;28;20057;-70
2023/08/23 12:15:53;;;;;;;7.30;6.60;;;;;;;;;;10252351;28;20092;-70
2023/08/23 12:20:49;;;;;;;6.43;5.82;;;;;;;;;;10249871;28;20048;-70
2023/08/23 12:25:45;;;;;;;7.95;7.15;;;;;;;;;;10266378;28;20048;-70
2023/08/23 12:30:42;;;;;;;6.75;6.20;;;;;;;;;;10258051;28;20065;-70
2023/08/23 12:35:38;;;;;;;7.30;6.78;;;;;;;;;;10264409;28;20048;-70
2023/08/23 12:40:34;;;;;;;6.90;6.30;;;;;;;;;;10262102;28;20049;-70
2023/08/23 12:45:31;;;;;;;6.65;6.15;;;;;;;;;;10268042;28;20041;-70
2023/08/23 12:50:27;;;;;;;6.70;6.10;;;;;;;;;;10277667;23;20041;-70
2023/08/23 12:55:24;;;;;;;6.07;5.68;;;;;;;;;;10272847;28;20048;-70
2023/08/23 13:00:20;;;;;;;6.20;5.70;;;;;;;;;;10378035;22;20106;-70
2023/08/23 13:05:27;;;;;;;6.60;6.00;;;;;;;;;;10263888;28;20052;-70
2023/08/23 13:10:23;;;;;;;6.72;6.22;;;;;;;;;;10245025;28;20041;-70
2023/08/23 13:15:19;;;;;;;6.53;5.90;;;;;;;;;;10235675;28;20056;-70
2023/08/23 13:20:16;;;;;;;7.20;5.97;;;;;;;;;;10235662;28;20050;-70
2023/08/23 13:25:12;;;;;;;6.25;5.75;;;;;;;;;;10229674;28;20080;-70
2023/08/23 13:30:23;;;;;;;6.78;6.28;;;;;;;;;;10339885;22;20115;-70
2023/08/23 13:35:56;;;;;;;6.28;5.68;;;;;;;;;;10267047;28;20044;-70
2023/08/23 13:41:14;;;;;;;6.10;5.60;;;;;;;;;;10256398;28;20049;-69
2023/08/23 13:46:34;;;;;;;6.85;6.03;;;;;;;;;;10246761;28;20041;-70
2023/08/23 13:51:30;;;;;;;7.20;6.60;;;;;;;;;;10261974;28;20055;-69
2023/08/23 13:56:26;;;;;;;5.95;5.43;;;;;;;;;;10260770;28;20139;-69
2023/08/23 14:01:23;;;;;;;6.20;5.70;;;;;;;;;;10248629;28;20054;-70
2023/08/23 14:06:20;;;;;;;7.15;6.10;;;;;;;;;;10256334;28;20587;-70
2023/08/23 14:11:16;;;;;;;12.02;10.88;;;;;;;;;;10279024;23;20045;-70
2023/08/23 14:16:12;;;;;;;9.25;8.35;;;;;;;;;;10263939;28;20460;-69
2023/08/23 14:21:09;;;;;;;10.57;6.88;;;;;;;;;;10252354;28;20052;-70
2023/08/23 14:26:07;;;;;;;7.70;7.00;;;;;;;;;;10253106;28;20060;-70
2023/08/23 14:31:04;;;;;;;6.88;6.28;;;;;;;;;;10252902;28;20041;-70
2023/08/23 14:36:00;;;;;;;6.30;5.80;;;;;;;;;;10260552;28;20106;-69
2023/08/23 14:40:56;;;;;;;11.38;10.27;;;;;;;;;;10351816;22;20049;-69
2023/08/23 14:45:53;;;;;;;7.88;6.25;;;;;;;;;;10263574;28;20510;-69
2023/08/23 14:50:49;;;;;;;5.90;5.40;;;;;;;;;;10259155;28;20045;-69
2023/08/23 14:55:46;;;;;;;6.25;5.65;;;;;;;;;;10249044;28;20446;-69
2023/08/23 15:00:44;;;;;;;7.00;6.40;;;;;;;;;;10251384;28;20111;-69
2023/08/23 15:05:40;;;;;;;6.20;5.60;;;;;;;;;;10244982;28;20464;-70
2023/08/23 15:10:36;;;;;;;6.82;6.30;;;;;;;;;;10249854;28;20132;-68
2023/08/23 15:15:33;;;;;;;6.32;5.72;;;;;;;;;;10247940;28;20227;-69
2023/08/23 15:20:32;;;;;;;6.30;5.70;;;;;;;;;;10254400;28;20064;-69
2023/08/23 15:25:30;;;;;;;6.20;5.65;;;;;;;;;;10258247;28;20064;-69
2023/08/23 15:30:27;;;;;;;6.10;5.50;;;;;;;;;;10248434;28;20130;-69
2023/08/23 15:35:23;;;;;;;5.95;4.95;;;;;;;;;;10251040;28;20663;-69
2023/08/23 15:40:19;;;;;;;6.40;5.80;;;;;;;;;;10248229;28;20064;-69
2023/08/23 15:45:18;;;;;;;7.50;5.82;;;;;;;;;;10255692;28;20156;-69
2023/08/23 15:50:16;;;;;;;6.45;5.95;;;;;;;;;;10256433;28;20064;-69
2023/08/23 15:55:12;;;;;;;6.90;5.90;;;;;;;;;;10230841;28;20471;-71
2023/08/23 16:00:09;;;;;;;6.80;6.13;;;;;;;;;;10249607;28;20065;-69
2023/08/23 16:05:06;;;;;;;6.22;5.63;;;;;;;;;;10255444;28;20052;-70
2023/08/23 16:10:05;;;;;;;7.85;5.60;;;;;;;;;;10257629;28;20497;-69
2023/08/23 16:15:02;;;;;;;5.90;5.35;;;;;;;;;;10246218;28;20047;-71
2023/08/23 16:19:58;;;;;;;6.63;5.95;;;;;;;;;;10365947;22;20088;-72
2023/08/23 16:24:55;;;;;;;12.13;6.00;;;;;;;;;;10242192;28;20080;-71
2023/08/23 16:29:53;;;;;;;6.65;5.47;;;;;;;;;;10253863;28;20059;-71
2023/08/23 16:34:50;;;;;;;8.30;5.88;;;;;;;;;;10244816;28;20041;-70
2023/08/23 16:39:46;;;;;;;7.15;6.28;;;;;;;;;;10254116;28;20053;-70
2023/08/23 16:44:43;;;;;;;6.78;6.05;;;;;;;;;;10250134;28;20053;-70
2023/08/23 16:49:39;;;;;;;6.32;5.78;;;;;;;;;;10246068;28;20065;-71
2023/08/23 16:54:36;;;;;;;8.18;5.78;;;;;;;;;;10253365;28;20108;-71
2023/08/23 16:59:32;;;;;;;6.20;5.70;;;;;;;;;;10255579;28;20045;-71
2023/08/23 17:04:29;;;;;;;6.18;5.60;;;;;;;;;;10246877;28;20049;-71
2023/08/23 17:09:26;;;;;;;8.52;5.72;;;;;;;;;;10246367;28;20458;-72
2023/08/23 17:14:25;;;;;;;5.90;5.40;;;;;;;;;;10264052;28;20072;-71
2023/08/23 17:19:22;;;;;;;6.72;5.72;;;;;;;;;;10247817;28;20053;-72
2023/08/23 17:24:19;;;;;;;6.15;5.40;;;;;;;;;;10238475;28;20123;-71
2023/08/23 17:29:15;;;;;;;6.43;5.82;;;;;;;;;;10237103;28;20061;-71
2023/08/23 17:34:11;;;;;;;6.40;5.90;;;;;;;;;;10253810;28;20057;-71
2023/08/23 17:39:08;;;;;;;6.53;5.90;;;;;;;;;;10251240;28;20060;-71
2023/08/23 17:44:04;;;;;;;6.45;5.38;;;;;;;;;;10253164;28;20132;-69
2023/08/23 17:49:01;;;;;;;6.28;5.65;;;;;;;;;;10251700;28;20049;-68
2023/08/23 17:53:58;;;;;;;6.35;5.70;;;;;;;;;;10223712;28;20045;-69
2023/08/23 17:58:54;;;;;;;7.32;6.50;;;;;;;;;;10246603;28;20051;-69
2023/08/23 18:03:53;;;;;;;11.60;6.80;;;;;;;;;;10252038;28;20646;-69
2023/08/23 18:08:50;;;;;;;8.18;6.50;;;;;;;;;;10237563;28;20049;-69
2023/08/23 18:13:46;;;;;;;5.93;5.43;;;;;;;;;;10253467;28;20049;-69
2023/08/23 18:18:43;;;;;;;6.50;5.90;;;;;;;;;;10256559;28;20084;-69
2023/08/23 18:23:42;;;;;;;10.15;6.70;;;;;;;;;;10246458;28;20053;-69
2023/08/23 18:28:39;;;;;;;5.95;5.45;;;;;;;;;;10266921;23;20077;-69
2023/08/23 18:33:35;;;;;;;11.40;6.35;;;;;;;;;;10218785;28;20041;-69
2023/08/23 18:43:46;;;;;;;13.93;7.07;;;;;;;;;;9522695;26;20068;-69
2023/08/23 18:48:43;;;;;;;8.95;8.05;;;;;;;;;;10249829;28;20069;-69
2023/08/23 18:53:41;;;;;;;13.98;8.30;;;;;;;;;;10254066;28;20037;-69
2023/08/23 18:58:37;;;;;;;9.95;8.55;;;;;;;;;;10256744;28;20534;-69
2023/08/23 19:03:34;;;;;;;8.98;7.38;;;;;;;;;;10249050;28;20522;-70
2023/08/23 19:08:30;;;;;;;9.73;6.63;;;;;;;;;;10253539;28;20049;-69
2023/08/23 19:13:27;;;;;;;7.53;6.55;;;;;;;;;;10254922;28;20050;-69
2023/08/23 19:18:23;;;;;;;7.50;6.50;;;;;;;;;;10240649;28;20060;-69
2023/08/23 19:23:20;;;;;;;10.93;7.82;;;;;;;;;;10259454;28;20053;-69
2023/08/23 19:28:33;;;;;;;11.48;7.35;;;;;;;;;;10251589;23;20084;-68
2023/08/23 19:33:34;;;;;;;7.28;6.28;;;;;;;;;;10206305;28;20062;-69
2023/08/23 19:38:30;;;;;;;8.10;6.35;;;;;;;;;;10207102;28;20046;-69
2023/08/23 19:43:27;;;;;;;8.27;6.50;;;;;;;;;;10172672;28;20660;-69
2023/08/23 19:48:23;;;;;;;11.25;7.20;;;;;;;;;;10192787;23;20057;-68
2023/08/23 19:53:29;;;;;;;9.20;5.97;;;;;;;;;;10210535;28;20065;-70
2023/08/23 19:58:26;;;;;;;8.52;7.30;;;;;;;;;;10212114;28;20055;-67
2023/08/23 20:03:22;;;;;;;6.75;5.47;;;;;;;;;;10206384;28;20042;-68
2023/08/23 20:08:22;;;;;;;6.40;5.53;;;;;;;;;;10208373;28;20129;-67
2023/08/23 20:13:18;;;;;;;8.50;5.88;;;;;;;;;;10217326;28;20053;-67
2023/08/23 20:18:15;;;;;;;6.57;5.50;;;;;;;;;;10216934;28;20140;-66
2023/08/23 20:23:11;;;;;;;7.40;5.40;;;;;;;;;;10217717;28;20041;-66
2023/08/23 20:28:08;;;;;;;8.45;5.97;;;;;;;;;;10217688;28;20053;-66
2023/08/23 20:33:04;;;;;;;7.60;5.40;;;;;;;;;;10217773;28;20069;-66
2023/08/23 20:38:01;;;;;;;6.63;5.80;;;;;;;;;;10216003;28;20057;-67
2023/08/23 20:42:58;;;;;;;6.20;5.60;;;;;;;;;;10219489;28;20053;-67
2023/08/23 20:47:54;;;;;;;6.30;5.50;;;;;;;;;;10222826;28;20056;-67
2023/08/23 20:52:51;;;;;;;7.22;5.57;;;;;;;;;;10227392;28;20137;-66
2023/08/23 20:57:48;;;;;;;8.48;5.03;;;;;;;;;;10214027;28;20058;-66
2023/08/23 21:02:44;;;;;;;6.57;5.88;;;;;;;;;;10222104;28;20045;-66
2023/08/23 21:07:41;;;;;;;8.18;6.35;;;;;;;;;;10228890;28;20073;-65
2023/08/23 21:12:37;;;;;;;6.05;5.45;;;;;;;;;;10221778;28;20057;-65
2023/08/23 21:17:33;;;;;;;6.30;5.70;;;;;;;;;;10227496;28;20049;-65
2023/08/23 21:22:30;;;;;;;6.18;5.57;;;;;;;;;;10220056;28;20088;-65
2023/08/23 21:27:26;;;;;;;7.93;6.32;;;;;;;;;;10227128;28;20075;-65
2023/08/23 21:32:22;;;;;;;6.82;5.70;;;;;;;;;;10221652;28;20103;-65
2023/08/23 21:37:19;;;;;;;9.75;6.53;;;;;;;;;;10212929;28;20719;-65
2023/08/23 21:42:15;;;;;;;8.82;6.20;;;;;;;;;;10220907;28;20065;-65
2023/08/23 21:47:11;;;;;;;6.95;6.25;;;;;;;;;;10224653;28;20041;-66
2023/08/23 21:52:08;;;;;;;9.95;6.38;;;;;;;;;;10229345;28;20065;-65
2023/08/23 21:57:04;;;;;;;12.20;7.70;;;;;;;;;;10224157;28;20507;-66
2023/08/23 22:02:00;;;;;;;8.32;7.03;;;;;;;;;;10231408;28;20060;-65
2023/08/23 22:06:58;;;;;;;10.02;7.20;;;;;;;;;;10218617;28;20064;-65
2023/08/23 22:11:54;;;;;;;9.05;7.22;;;;;;;;;;10230583;28;20811;-66
2023/08/23 22:16:50;;;;;;;11.10;7.55;;;;;;;;;;10219682;28;20136;-65
2023/08/23 22:21:47;;;;;;;9.05;7.63;;;;;;;;;;10226163;28;20049;-65
2023/08/23 22:26:43;;;;;;;11.40;8.45;;;;;;;;;;10216610;28;20053;-67
2023/08/23 22:31:39;;;;;;;8.13;7.30;;;;;;;;;;10227032;28;20076;-65
2023/08/23 22:36:35;;;;;;;12.88;8.77;;;;;;;;;;10223678;28;20058;-65
2023/08/23 22:41:32;;;;;;;10.32;8.40;;;;;;;;;;10223110;28;20709;-66
2023/08/23 22:46:28;;;;;;;12.75;9.15;;;;;;;;;;10220129;28;20058;-66
2023/08/23 22:51:28;;;;;;;14.80;8.27;;;;;;;;;;10213230;28;20099;-66
2023/08/23 22:56:24;;;;;;;11.50;9.10;;;;;;;;;;10214934;28;20053;-67
2023/08/23 23:01:20;;;;;;;9.45;8.45;;;;;;;;;;10224944;28;20091;-66
2023/08/23 23:06:17;;;;;;;15.45;8.77;;;;;;;;;;10223850;28;20053;-66
2023/08/23 23:11:13;;;;;;;13.82;8.85;;;;;;;;;;10223496;28;20057;-66
2023/08/23 23:16:09;;;;;;;12.23;8.38;;;;;;;;;;10223103;28;20088;-66
2023/08/23 23:21:06;;;;;;;15.88;8.90;;;;;;;;;;10217163;28;20042;-66
2023/08/23 23:26:02;;;;;;;11.80;8.10;;;;;;;;;;10219208;28;20150;-64
2023/08/23 23:31:03;;;;;;;11.43;8.27;;;;;;;;;;10225603;28;20045;-66
2023/08/23 23:35:59;;;;;;;11.02;8.35;;;;;;;;;;10220555;28;20042;-67
2023/08/23 23:40:56;;;;;;;12.23;8.30;;;;;;;;;;10218393;28;20630;-67
2023/08/23 23:45:52;;;;;;;8.77;7.47;;;;;;;;;;10218849;28;20148;-65
2023/08/23 23:50:48;;;;;;;8.32;7.25;;;;;;;;;;10219122;28;20056;-67
2023/08/23 23:55:45;;;;;;;9.60;6.93;;;;;;;;;;10221604;28;20048;-67
